Time;durP1;ratioP1;P1;durP2;ratioP2;P2;SDS_P1;SDS_P2;PMS_P1;PMS_P2;Temp;Humidity;BMP_temperature;BMP_pressure;BME280_temperature;BME280_humidity;BME280_pressure;Samples;Min_cycle;Max_cycle;Signal;HPM_P1;HPM_P2
2022/04/30 00:00:48;;;;;;;25.38;17.58;;;;;;;;;;5080147;28;20040;-94
2022/04/30 00:03:14;;;;;;;24.38;19.00;;;;;;;;;;5079821;28;20024;-94
2022/04/30 00:05:40;;;;;;;27.90;20.55;;;;;;;;;;5080604;28;20032;-94
2022/04/30 00:08:07;;;;;;;28.15;21.65;;;;;;;;;;5080938;28;20019;-95
2022/04/30 00:10:37;;;;;;;31.70;22.15;;;;;;;;;;5080385;28;20025;-95
2022/04/30 00:13:04;;;;;;;33.05;22.83;;;;;;;;;;5080583;28;20033;-96
2022/04/30 00:15:30;;;;;;;30.27;23.42;;;;;;;;;;5080888;28;20027;-95
2022/04/30 00:17:56;;;;;;;33.35;23.52;;;;;;;;;;5080715;28;20031;-94
2022/04/30 00:20:22;;;;;;;31.35;22.73;;;;;;;;;;5080569;28;20020;-95
2022/04/30 00:22:48;;;;;;;32.20;23.38;;;;;;;;;;5080251;28;20059;-95
2022/04/30 00:25:15;;;;;;;34.40;23.75;;;;;;;;;;5079441;28;20027;-94
2022/04/30 00:27:41;;;;;;;33.05;22.77;;;;;;;;;;5080158;28;20344;-95
2022/04/30 00:30:08;;;;;;;34.05;23.05;;;;;;;;;;5079368;28;20017;-95
2022/04/30 00:32:35;;;;;;;33.80;23.88;;;;;;;;;;5080125;28;20025;-96
2022/04/30 00:35:03;;;;;;;34.08;23.83;;;;;;;;;;5079782;28;20030;-95
2022/04/30 00:37:29;;;;;;;35.15;24.65;;;;;;;;;;5079388;28;20035;-95
2022/04/30 00:39:55;;;;;;;35.92;24.65;;;;;;;;;;5080099;28;20029;-95
2022/04/30 00:42:21;;;;;;;34.72;24.85;;;;;;;;;;5079806;28;20036;-95
2022/04/30 00:44:47;;;;;;;35.35;25.10;;;;;;;;;;5080192;28;20040;-95
2022/04/30 00:47:18;;;;;;;38.38;27.52;;;;;;;;;;5078841;28;20410;-94
2022/04/30 00:49:45;;;;;;;48.23;30.63;;;;;;;;;;5080018;28;20021;-95
2022/04/30 00:52:13;;;;;;;48.15;30.75;;;;;;;;;;5078959;28;20266;-95
2022/04/30 00:54:40;;;;;;;48.00;31.17;;;;;;;;;;5078858;28;20032;-95
2022/04/30 00:57:09;;;;;;;48.45;31.02;;;;;;;;;;5079869;28;20027;-95
2022/04/30 00:59:39;;;;;;;46.17;31.08;;;;;;;;;;5079639;28;20027;-96
2022/04/30 01:02:05;;;;;;;47.60;30.23;;;;;;;;;;5079646;28;20322;-96
2022/04/30 01:04:31;;;;;;;42.78;29.23;;;;;;;;;;5079615;28;20120;-95
2022/04/30 01:07:00;;;;;;;41.80;28.10;;;;;;;;;;5078712;28;20029;-95
2022/04/30 01:09:31;;;;;;;40.28;27.42;;;;;;;;;;5079610;28;20028;-95
2022/04/30 01:12:12;;;;;;;43.13;29.05;;;;;;;;;;5079485;28;20048;-95
2022/04/30 01:14:39;;;;;;;38.90;26.83;;;;;;;;;;5078527;28;20028;-95
2022/04/30 01:17:06;;;;;;;39.30;26.88;;;;;;;;;;5079293;28;20040;-95
2022/04/30 01:19:35;;;;;;;43.88;29.70;;;;;;;;;;5079408;28;20021;-94
2022/04/30 01:22:02;;;;;;;51.67;35.38;;;;;;;;;;5078553;28;20028;-96
2022/04/30 01:24:30;;;;;;;54.35;34.67;;;;;;;;;;5078240;28;20025;-96
2022/04/30 01:26:59;;;;;;;44.72;31.85;;;;;;;;;;5078108;28;20052;-95
2022/04/30 01:29:28;;;;;;;47.03;31.35;;;;;;;;;;5078473;28;20103;-95
2022/04/30 01:37:53;;;;;;;44.05;29.95;;;;;;;;;;5092070;28;20050;-95
2022/04/30 01:40:22;;;;;;;39.30;28.15;;;;;;;;;;5084010;28;20044;-96
2022/04/30 01:42:48;;;;;;;46.63;30.17;;;;;;;;;;5092075;28;20016;-96
2022/04/30 01:45:15;;;;;;;43.55;29.23;;;;;;;;;;5087092;28;20027;-96
2022/04/30 01:50:45;;;;;;;38.05;28.02;;;;;;;;;;5100446;28;20516;-95
2022/04/30 01:53:12;;;;;;;38.35;27.92;;;;;;;;;;5099299;28;20020;-95
2022/04/30 01:55:38;;;;;;;37.25;27.40;;;;;;;;;;5098141;28;20028;-95
2022/04/30 01:58:04;;;;;;;36.22;26.95;;;;;;;;;;5092772;28;20458;-95
2022/04/30 02:00:31;;;;;;;37.35;26.00;;;;;;;;;;5078705;28;20041;-94
2022/04/30 02:03:19;;;;;;;36.75;26.20;;;;;;;;;;5083048;28;20036;-96
2022/04/30 02:05:45;;;;;;;39.33;27.40;;;;;;;;;;5085606;28;20024;-95
2022/04/30 02:08:12;;;;;;;38.70;26.10;;;;;;;;;;5084461;28;20024;-96
2022/04/30 02:10:41;;;;;;;33.67;24.98;;;;;;;;;;5090188;28;20042;-96
2022/04/30 02:13:11;;;;;;;34.08;24.38;;;;;;;;;;5104250;28;20020;-96
2022/04/30 02:15:37;;;;;;;31.92;24.48;;;;;;;;;;5103671;28;20061;-96
2022/04/30 02:18:04;;;;;;;33.08;23.92;;;;;;;;;;5101391;28;20016;-96
2022/04/30 02:20:34;;;;;;;34.85;24.85;;;;;;;;;;5098605;28;20016;-95
2022/04/30 02:23:01;;;;;;;33.20;24.05;;;;;;;;;;5098377;28;20024;-96
2022/04/30 02:35:51;;;;;;;32.40;23.55;;;;;;;;;;6066487;22;20004;-96
2022/04/30 02:38:19;;;;;;;28.20;22.23;;;;;;;;;;5067508;28;20047;-96
2022/04/30 02:40:58;;;;;;;31.50;22.02;;;;;;;;;;5070980;28;20029;-96
2022/04/30 02:43:26;;;;;;;33.05;22.10;;;;;;;;;;5070200;28;20403;-96
2022/04/30 02:45:52;;;;;;;30.65;21.83;;;;;;;;;;5059606;28;20078;-95
2022/04/30 02:55:03;;;;;;;31.55;22.77;;;;;;;;;;5060880;28;20040;-96
2022/04/30 02:57:39;;;;;;;28.95;22.20;;;;;;;;;;5056312;28;20021;-94
2022/04/30 03:00:06;;;;;;;27.88;22.30;;;;;;;;;;5056671;28;20407;-94
2022/04/30 03:02:32;;;;;;;25.63;19.98;;;;;;;;;;5057638;28;20112;-94
2022/04/30 03:04:58;;;;;;;26.05;19.48;;;;;;;;;;5057732;28;20096;-94
2022/04/30 03:07:25;;;;;;;24.60;19.45;;;;;;;;;;5057390;28;20033;-94
2022/04/30 03:09:51;;;;;;;24.02;19.30;;;;;;;;;;5057512;28;20218;-94
2022/04/30 03:12:17;;;;;;;24.30;18.40;;;;;;;;;;5056572;28;20039;-96
2022/04/30 03:14:43;;;;;;;34.88;20.65;;;;;;;;;;5056095;28;20025;-92
2022/04/30 03:22:57;;;;;;;28.20;19.38;;;;;;;;;;5057913;28;20055;-94
2022/04/30 03:25:23;;;;;;;30.30;21.02;;;;;;;;;;5057345;28;20028;-94
2022/04/30 03:27:49;;;;;;;28.30;20.80;;;;;;;;;;5056573;28;20032;-94
2022/04/30 03:30:15;;;;;;;30.75;20.67;;;;;;;;;;5056323;28;20396;-93
2022/04/30 03:32:42;;;;;;;34.05;21.80;;;;;;;;;;5056237;28;20460;-94
2022/04/30 03:35:09;;;;;;;33.83;20.58;;;;;;;;;;5056910;28;20414;-93
2022/04/30 03:37:35;;;;;;;34.88;22.05;;;;;;;;;;5056998;28;20051;-94
2022/04/30 03:40:01;;;;;;;26.40;21.05;;;;;;;;;;5057128;28;20029;-95
2022/04/30 03:42:28;;;;;;;36.47;21.60;;;;;;;;;;5057395;28;20040;-92
2022/04/30 03:44:54;;;;;;;33.80;22.05;;;;;;;;;;5057231;28;20142;-94
2022/04/30 03:53:27;;;;;;;33.33;22.77;;;;;;;;;;5057235;28;20037;-94
2022/04/30 03:55:53;;;;;;;31.02;21.30;;;;;;;;;;5057062;28;20021;-94
2022/04/30 03:58:22;;;;;;;35.38;20.65;;;;;;;;;;5056963;28;20024;-95
2022/04/30 04:00:48;;;;;;;29.95;21.42;;;;;;;;;;5056885;28;20147;-95
2022/04/30 04:03:14;;;;;;;33.75;21.10;;;;;;;;;;5057355;28;20028;-96
2022/04/30 04:05:41;;;;;;;31.40;21.65;;;;;;;;;;5056657;28;20419;-94
2022/04/30 04:08:12;;;;;;;25.90;20.42;;;;;;;;;;5055992;28;20021;-95
2022/04/30 04:10:38;;;;;;;29.40;21.02;;;;;;;;;;5059704;28;20300;-96
2022/04/30 04:18:33;;;;;;;24.42;19.75;;;;;;;;;;5062351;28;20032;-96
2022/04/30 04:21:00;;;;;;;26.52;19.48;;;;;;;;;;5061350;28;20028;-96
2022/04/30 04:23:27;;;;;;;28.15;19.45;;;;;;;;;;5065692;28;20100;-95
2022/04/30 04:26:00;;;;;;;32.10;18.88;;;;;;;;;;5071260;28;20098;-96
2022/04/30 04:28:26;;;;;;;23.13;18.60;;;;;;;;;;5060223;28;20032;-95
2022/04/30 04:30:52;;;;;;;26.35;18.73;;;;;;;;;;5060643;28;20017;-96
2022/04/30 04:33:18;;;;;;;23.25;18.73;;;;;;;;;;5060512;28;20104;-95
2022/04/30 04:35:44;;;;;;;22.33;18.42;;;;;;;;;;5060457;28;20407;-95
2022/04/30 04:38:10;;;;;;;22.33;18.88;;;;;;;;;;5060125;28;20430;-95
2022/04/30 04:40:37;;;;;;;24.40;19.55;;;;;;;;;;5058551;28;20331;-95
2022/04/30 04:43:03;;;;;;;24.33;19.92;;;;;;;;;;5059103;28;20036;-94
2022/04/30 04:45:29;;;;;;;23.67;19.23;;;;;;;;;;5059676;28;20032;-95
2022/04/30 04:47:55;;;;;;;28.98;20.45;;;;;;;;;;5058917;28;20322;-94
2022/04/30 04:50:25;;;;;;;27.15;20.83;;;;;;;;;;5058877;28;20159;-94
2022/04/30 04:52:51;;;;;;;23.88;20.77;;;;;;;;;;5059847;28;20033;-95
2022/04/30 04:55:18;;;;;;;28.45;21.60;;;;;;;;;;5059652;28;20064;-95
2022/04/30 04:57:44;;;;;;;34.47;22.83;;;;;;;;;;5058889;28;20032;-95
2022/04/30 05:00:10;;;;;;;27.65;22.48;;;;;;;;;;5059934;28;20020;-95
2022/04/30 05:02:36;;;;;;;31.98;22.92;;;;;;;;;;5058358;28;20111;-95
2022/04/30 05:05:03;;;;;;;26.73;22.08;;;;;;;;;;5058363;28;20065;-95
2022/04/30 05:07:29;;;;;;;25.77;21.50;;;;;;;;;;5059325;28;20411;-95
2022/04/30 05:09:55;;;;;;;30.25;22.98;;;;;;;;;;5059591;28;20067;-96
2022/04/30 05:12:21;;;;;;;29.90;22.25;;;;;;;;;;5058395;28;20115;-95
2022/04/30 05:14:48;;;;;;;32.80;22.75;;;;;;;;;;5058040;28;20063;-95
2022/04/30 05:17:31;;;;;;;27.40;22.52;;;;;;;;;;5059330;28;20029;-96
2022/04/30 05:19:57;;;;;;;27.05;21.88;;;;;;;;;;5059648;28;20055;-94
2022/04/30 05:22:23;;;;;;;26.98;23.00;;;;;;;;;;5059319;28;20033;-94
2022/04/30 05:24:49;;;;;;;30.35;23.95;;;;;;;;;;5059039;28;20051;-95
2022/04/30 05:27:15;;;;;;;28.65;23.42;;;;;;;;;;5058429;28;20067;-95
2022/04/30 05:29:41;;;;;;;31.17;24.10;;;;;;;;;;5058834;28;20108;-95
2022/04/30 05:32:07;;;;;;;31.35;24.08;;;;;;;;;;5060628;28;20058;-94
2022/04/30 05:34:34;;;;;;;33.88;23.17;;;;;;;;;;5058114;28;20553;-96
2022/04/30 05:37:00;;;;;;;33.33;24.65;;;;;;;;;;5058887;28;20041;-95
2022/04/30 05:39:26;;;;;;;33.03;25.23;;;;;;;;;;5058920;28;20025;-95
2022/04/30 05:41:52;;;;;;;29.08;22.88;;;;;;;;;;5058301;28;20025;-94
2022/04/30 05:44:18;;;;;;;27.55;23.35;;;;;;;;;;5058588;28;20449;-94
2022/04/30 05:46:44;;;;;;;28.65;23.13;;;;;;;;;;5057723;28;20021;-96
2022/04/30 05:52:14;;;;;;;30.60;25.20;;;;;;;;;;5058968;28;20039;-95
2022/04/30 05:54:40;;;;;;;32.25;25.02;;;;;;;;;;5058941;28;20029;-94
2022/04/30 05:57:06;;;;;;;30.85;25.05;;;;;;;;;;5058884;28;20021;-93
2022/04/30 05:59:32;;;;;;;33.13;26.20;;;;;;;;;;5058736;28;20031;-93
2022/04/30 06:01:58;;;;;;;30.95;24.33;;;;;;;;;;5058658;28;20059;-94
2022/04/30 06:04:40;;;;;;;32.80;25.10;;;;;;;;;;5056874;28;20382;-96
2022/04/30 06:20:37;;;;;;;28.30;20.90;;;;;;;;;;5030611;28;20057;-96
2022/04/30 06:23:03;;;;;;;26.58;19.95;;;;;;;;;;5027940;28;20026;-93
2022/04/30 06:25:29;;;;;;;22.52;19.38;;;;;;;;;;5001078;28;20053;-92
2022/04/30 06:27:55;;;;;;;22.17;18.58;;;;;;;;;;5000771;28;20045;-92
2022/04/30 06:30:21;;;;;;;25.58;19.35;;;;;;;;;;5017541;28;20120;-93
2022/04/30 06:38:55;;;;;;;23.75;18.17;;;;;;;;;;5020249;28;20049;-94
2022/04/30 06:41:21;;;;;;;21.35;17.08;;;;;;;;;;5001986;28;20034;-96
2022/04/30 06:43:49;;;;;;;29.05;21.77;;;;;;;;;;5001849;28;20128;-96
2022/04/30 06:46:16;;;;;;;26.42;18.33;;;;;;;;;;5024451;28;20030;-96
2022/04/30 06:48:46;;;;;;;22.20;16.85;;;;;;;;;;5037268;28;20153;-96
2022/04/30 06:51:21;;;;;;;25.73;18.25;;;;;;;;;;5002882;28;20086;-96
2022/04/30 06:59:12;;;;;;;15.63;14.00;;;;;;;;;;5024407;28;20075;-95
2022/04/30 07:01:51;;;;;;;15.65;13.23;;;;;;;;;;5024256;28;20499;-95
2022/04/30 07:04:18;;;;;;;14.45;12.95;;;;;;;;;;5023921;28;20018;-94
2022/04/30 07:06:47;;;;;;;15.30;12.90;;;;;;;;;;5025012;28;20032;-96
2022/04/30 07:09:14;;;;;;;14.18;12.73;;;;;;;;;;5031041;28;20006;-96
2022/04/30 07:11:40;;;;;;;15.55;13.57;;;;;;;;;;5015960;28;20068;-95
2022/04/30 07:14:06;;;;;;;14.20;12.75;;;;;;;;;;5017907;28;20026;-94
2022/04/30 07:16:32;;;;;;;15.95;12.80;;;;;;;;;;5018141;28;20026;-96
2022/04/30 07:19:36;;;;;;;13.63;12.18;;;;;;;;;;5016653;28;20022;-94
2022/04/30 07:22:03;;;;;;;14.77;11.77;;;;;;;;;;5018476;28;20034;-95
2022/04/30 07:47:51;;;;;;;12.63;7.88;;;;;;;;;;5791556;22;20058;-95
2022/04/30 07:50:18;;;;;;;8.57;6.90;;;;;;;;;;5041378;28;20411;-96
2022/04/30 07:52:44;;;;;;;9.95;7.32;;;;;;;;;;5040647;28;20148;-96
2022/04/30 08:02:59;;;;;;;9.85;7.75;;;;;;;;;;5052563;28;20035;-95
2022/04/30 08:05:31;;;;;;;12.45;7.63;;;;;;;;;;5058386;28;20021;-96
2022/04/30 08:08:17;;;;;;;11.73;8.30;;;;;;;;;;5054609;28;20029;-96
2022/04/30 08:11:13;;;;;;;8.80;7.00;;;;;;;;;;5038742;28;20018;-96
2022/04/30 08:13:39;;;;;;;10.77;7.68;;;;;;;;;;5036877;28;20103;-93
2022/04/30 08:16:09;;;;;;;8.13;7.25;;;;;;;;;;5024494;28;20037;-92
2022/04/30 08:22:16;;;;;;;7.97;7.18;;;;;;;;;;5030392;28;20044;-93
2022/04/30 08:24:43;;;;;;;7.97;7.15;;;;;;;;;;5040916;28;20026;-92
2022/04/30 08:27:09;;;;;;;7.40;6.22;;;;;;;;;;5040443;28;20018;-92
2022/04/30 08:29:35;;;;;;;9.52;7.07;;;;;;;;;;5040316;28;20026;-92
2022/04/30 08:32:01;;;;;;;7.03;6.32;;;;;;;;;;5039044;28;20075;-93
2022/04/30 08:34:33;;;;;;;6.68;5.97;;;;;;;;;;5040199;28;20036;-92
2022/04/30 08:36:59;;;;;;;9.05;7.05;;;;;;;;;;5038997;28;20308;-93
2022/04/30 08:39:25;;;;;;;8.77;7.32;;;;;;;;;;5040371;28;20030;-92
2022/04/30 08:41:51;;;;;;;7.53;6.63;;;;;;;;;;5039949;28;20396;-95
2022/04/30 08:44:18;;;;;;;9.80;7.15;;;;;;;;;;5040112;28;20021;-93
2022/04/30 08:46:45;;;;;;;7.07;6.38;;;;;;;;;;5039409;28;20029;-92
2022/04/30 08:49:11;;;;;;;8.05;6.35;;;;;;;;;;5039912;28;20034;-94
2022/04/30 08:51:39;;;;;;;10.57;7.82;;;;;;;;;;5040540;28;20104;-86
2022/04/30 08:54:05;;;;;;;9.43;7.65;;;;;;;;;;5040193;28;20038;-93
2022/04/30 08:56:31;;;;;;;8.90;8.00;;;;;;;;;;5038940;28;20030;-93
2022/04/30 08:59:02;;;;;;;13.00;8.32;;;;;;;;;;5038690;28;20022;-93
2022/04/30 09:01:28;;;;;;;12.30;9.50;;;;;;;;;;5038331;28;20073;-93
2022/04/30 09:03:55;;;;;;;13.45;9.70;;;;;;;;;;5038786;28;20412;-91
2022/04/30 09:06:22;;;;;;;10.55;7.72;;;;;;;;;;5039542;28;20034;-93
2022/04/30 09:08:51;;;;;;;10.02;8.23;;;;;;;;;;5039489;28;20025;-93
2022/04/30 09:11:18;;;;;;;9.15;7.90;;;;;;;;;;5038653;28;20103;-92
2022/04/30 09:13:47;;;;;;;8.77;7.10;;;;;;;;;;5039442;28;20021;-92
2022/04/30 09:16:20;;;;;;;7.80;6.60;;;;;;;;;;5039595;28;20305;-91
2022/04/30 09:18:47;;;;;;;7.72;6.80;;;;;;;;;;5038953;28;20038;-92
2022/04/30 09:21:14;;;;;;;7.90;7.15;;;;;;;;;;5038356;28;20029;-92
2022/04/30 09:23:40;;;;;;;8.27;7.22;;;;;;;;;;5039116;28;20017;-92
2022/04/30 09:26:06;;;;;;;7.22;6.53;;;;;;;;;;5037964;28;20303;-87
2022/04/30 09:28:36;;;;;;;7.55;6.80;;;;;;;;;;5038977;28;20071;-87
2022/04/30 09:31:08;;;;;;;9.75;6.85;;;;;;;;;;5038116;28;20056;-86
2022/04/30 09:33:35;;;;;;;8.75;7.82;;;;;;;;;;5038966;28;20375;-87
2022/04/30 09:38:49;;;;;;;9.50;7.32;;;;;;;;;;5038892;28;20036;-85
2022/04/30 09:41:21;;;;;;;8.65;7.53;;;;;;;;;;5038479;28;20068;-85
2022/04/30 09:43:48;;;;;;;11.38;8.18;;;;;;;;;;5038705;28;20022;-84
2022/04/30 09:46:15;;;;;;;14.13;8.40;;;;;;;;;;5037413;28;20032;-85
2022/04/30 09:54:10;;;;;;;8.30;6.80;;;;;;;;;;5038785;28;20091;-84
2022/04/30 09:56:37;;;;;;;10.82;7.57;;;;;;;;;;5038323;28;20048;-84
2022/04/30 09:59:05;;;;;;;11.35;7.55;;;;;;;;;;5038401;28;20396;-84
2022/04/30 10:01:32;;;;;;;10.45;7.10;;;;;;;;;;5038196;28;20099;-85
2022/04/30 10:03:59;;;;;;;9.63;7.75;;;;;;;;;;5038194;28;20030;-85
2022/04/30 10:06:26;;;;;;;7.68;6.82;;;;;;;;;;5037429;28;20032;-85
2022/04/30 10:08:53;;;;;;;9.80;8.80;;;;;;;;;;5038150;28;20022;-85
2022/04/30 10:11:34;;;;;;;8.55;7.28;;;;;;;;;;5037936;28;20156;-85
2022/04/30 10:14:03;;;;;;;8.65;6.60;;;;;;;;;;5038337;28;20041;-84
2022/04/30 10:16:29;;;;;;;7.47;6.45;;;;;;;;;;5038147;28;20034;-85
2022/04/30 10:19:11;;;;;;;8.18;6.90;;;;;;;;;;5036917;28;20026;-85
2022/04/30 10:21:38;;;;;;;10.65;7.07;;;;;;;;;;5037887;28;20415;-85
2022/04/30 10:24:05;;;;;;;9.00;6.72;;;;;;;;;;5037755;28;20045;-85
2022/04/30 10:26:31;;;;;;;9.40;7.78;;;;;;;;;;5038042;28;20022;-85
2022/04/30 10:28:58;;;;;;;8.93;7.43;;;;;;;;;;5037939;28;20109;-84
2022/04/30 10:31:24;;;;;;;10.30;7.00;;;;;;;;;;5036773;28;20037;-85
2022/04/30 10:33:51;;;;;;;7.53;6.75;;;;;;;;;;5037631;28;20025;-84
2022/04/30 10:36:18;;;;;;;8.20;6.40;;;;;;;;;;5037714;28;20033;-85
2022/04/30 10:38:53;;;;;;;9.48;6.15;;;;;;;;;;5036892;28;20033;-84
2022/04/30 10:41:19;;;;;;;8.40;7.25;;;;;;;;;;5037819;28;20045;-85
2022/04/30 10:43:45;;;;;;;7.15;5.78;;;;;;;;;;5036699;28;20034;-85
2022/04/30 10:46:14;;;;;;;17.70;7.05;;;;;;;;;;5036746;28;20098;-85
2022/04/30 10:48:40;;;;;;;10.68;7.65;;;;;;;;;;5037557;28;20017;-84
2022/04/30 10:51:10;;;;;;;5.05;4.53;;;;;;;;;;5037453;28;20045;-85
2022/04/30 10:53:41;;;;;;;6.45;4.93;;;;;;;;;;5037538;28;20022;-84
2022/04/30 10:56:08;;;;;;;8.57;5.57;;;;;;;;;;5037324;28;20018;-84
2022/04/30 10:58:36;;;;;;;6.95;4.90;;;;;;;;;;5037443;28;20025;-84
2022/04/30 11:01:15;;;;;;;5.97;5.20;;;;;;;;;;5037257;28;20041;-85
2022/04/30 11:03:42;;;;;;;6.63;5.18;;;;;;;;;;5037450;28;20025;-84
2022/04/30 11:06:11;;;;;;;6.25;5.05;;;;;;;;;;5035858;28;20031;-84
2022/04/30 11:08:37;;;;;;;9.05;5.65;;;;;;;;;;5037377;28;20033;-86
2022/04/30 11:11:03;;;;;;;6.28;5.57;;;;;;;;;;5037451;28;20031;-85
2022/04/30 11:13:29;;;;;;;5.45;4.82;;;;;;;;;;5037280;28;20037;-85
2022/04/30 11:15:59;;;;;;;6.25;5.65;;;;;;;;;;5037276;28;20475;-85
2022/04/30 11:18:25;;;;;;;6.20;5.22;;;;;;;;;;5039551;28;20037;-84
2022/04/30 11:20:59;;;;;;;10.77;8.07;;;;;;;;;;5033852;28;20022;-85
2022/04/30 11:23:25;;;;;;;7.70;5.90;;;;;;;;;;5040426;28;20030;-84
2022/04/30 11:25:51;;;;;;;7.40;5.80;;;;;;;;;;5041081;28;20554;-85
2022/04/30 11:28:17;;;;;;;11.60;7.05;;;;;;;;;;5040353;28;20021;-85
2022/04/30 11:30:45;;;;;;;10.43;6.85;;;;;;;;;;5041361;28;20038;-84
2022/04/30 11:33:12;;;;;;;9.25;5.95;;;;;;;;;;5041161;28;20052;-84
2022/04/30 11:35:38;;;;;;;8.38;6.00;;;;;;;;;;5041184;28;20021;-84
2022/04/30 11:38:08;;;;;;;6.30;5.70;;;;;;;;;;5041153;28;20055;-85
2022/04/30 11:40:34;;;;;;;7.70;6.90;;;;;;;;;;5040831;28;20370;-85
2022/04/30 11:43:04;;;;;;;10.55;7.82;;;;;;;;;;5040800;28;20315;-85
2022/04/30 11:45:31;;;;;;;8.65;6.90;;;;;;;;;;5040986;28;20020;-84
2022/04/30 11:48:00;;;;;;;7.57;6.78;;;;;;;;;;5040798;28;20025;-85
2022/04/30 11:50:27;;;;;;;6.65;5.70;;;;;;;;;;5039755;28;20391;-84
2022/04/30 11:52:53;;;;;;;16.25;10.20;;;;;;;;;;5039810;28;20039;-85
2022/04/30 11:55:22;;;;;;;11.18;8.63;;;;;;;;;;5040612;28;20076;-84
2022/04/30 11:57:49;;;;;;;14.85;7.10;;;;;;;;;;5040689;28;20087;-85
2022/04/30 12:00:16;;;;;;;10.60;7.18;;;;;;;;;;5040721;28;20033;-85
2022/04/30 12:02:45;;;;;;;9.15;7.30;;;;;;;;;;5039729;28;20049;-84
2022/04/30 12:05:11;;;;;;;11.45;8.77;;;;;;;;;;5040644;28;20404;-85
2022/04/30 12:07:48;;;;;;;7.82;7.03;;;;;;;;;;5040781;28;20026;-84
2022/04/30 12:10:32;;;;;;;7.07;6.00;;;;;;;;;;5040512;28;20039;-85
2022/04/30 12:12:58;;;;;;;9.75;7.47;;;;;;;;;;5040273;28;20442;-85
2022/04/30 12:15:28;;;;;;;10.70;9.50;;;;;;;;;;5041093;28;20026;-84
2022/04/30 12:26:25;;;;;;;15.00;10.60;;;;;;;;;;5040915;28;20032;-85
2022/04/30 12:28:52;;;;;;;14.73;11.20;;;;;;;;;;5039662;28;20025;-85
2022/04/30 12:31:19;;;;;;;12.38;9.73;;;;;;;;;;5040326;28;20037;-85
2022/04/30 12:33:47;;;;;;;21.33;14.40;;;;;;;;;;5039142;28;20038;-85
2022/04/30 12:36:13;;;;;;;20.60;15.32;;;;;;;;;;5038948;28;20434;-85
2022/04/30 12:38:39;;;;;;;20.23;14.60;;;;;;;;;;5040246;28;20021;-85
2022/04/30 12:41:08;;;;;;;13.70;10.30;;;;;;;;;;5039830;28;20067;-85
2022/04/30 12:43:36;;;;;;;30.40;23.05;;;;;;;;;;5039892;28;20049;-85
2022/04/30 12:46:05;;;;;;;18.05;13.88;;;;;;;;;;5039916;28;20404;-85
2022/04/30 12:48:34;;;;;;;26.15;19.30;;;;;;;;;;5039948;28;20063;-85
2022/04/30 12:51:00;;;;;;;23.52;15.15;;;;;;;;;;5038653;28;20033;-85
2022/04/30 12:53:26;;;;;;;39.85;26.92;;;;;;;;;;5038727;28;20037;-84
2022/04/30 12:55:54;;;;;;;23.10;15.15;;;;;;;;;;5039864;28;20026;-85
2022/04/30 12:58:21;;;;;;;14.48;9.90;;;;;;;;;;5038276;28;20029;-85
2022/04/30 13:00:47;;;;;;;22.45;14.27;;;;;;;;;;5039600;28;20025;-85
2022/04/30 13:03:13;;;;;;;20.10;13.75;;;;;;;;;;5039314;28;20034;-86
2022/04/30 13:05:39;;;;;;;48.25;31.35;;;;;;;;;;5038614;28;20025;-85
2022/04/30 13:08:06;;;;;;;10.80;7.80;;;;;;;;;;5038063;28;20036;-85
2022/04/30 13:15:54;;;;;;;10.32;6.07;;;;;;;;;;5039308;28;20026;-86
2022/04/30 13:18:21;;;;;;;7.22;6.35;;;;;;;;;;5038979;28;20068;-85
2022/04/30 13:20:47;;;;;;;8.55;7.18;;;;;;;;;;5039029;28;20031;-85
2022/04/30 13:23:13;;;;;;;7.75;6.25;;;;;;;;;;5038945;28;20420;-85
2022/04/30 13:25:39;;;;;;;8.20;7.20;;;;;;;;;;5038994;28;20072;-85
2022/04/30 13:28:06;;;;;;;11.55;7.25;;;;;;;;;;5039090;28;20052;-85
2022/04/30 13:30:32;;;;;;;6.75;5.90;;;;;;;;;;5038875;28;20028;-85
2022/04/30 13:32:58;;;;;;;7.45;5.95;;;;;;;;;;5039024;28;20044;-85
2022/04/30 13:35:24;;;;;;;15.93;11.55;;;;;;;;;;5038836;28;20022;-85
2022/04/30 13:37:51;;;;;;;10.60;6.85;;;;;;;;;;5037804;28;20328;-85
2022/04/30 13:40:18;;;;;;;10.95;8.15;;;;;;;;;;5038378;28;20403;-85
2022/04/30 13:42:45;;;;;;;11.15;8.05;;;;;;;;;;5037877;28;20116;-85
2022/04/30 13:45:12;;;;;;;12.38;7.07;;;;;;;;;;5038830;28;20068;-85
2022/04/30 13:47:38;;;;;;;7.85;6.60;;;;;;;;;;5038721;28;20447;-85
2022/04/30 13:50:05;;;;;;;9.40;7.82;;;;;;;;;;5037577;28;20034;-85
2022/04/30 13:52:32;;;;;;;10.50;8.27;;;;;;;;;;5038744;28;20450;-85
2022/04/30 13:54:58;;;;;;;7.88;7.03;;;;;;;;;;5038548;28;20029;-85
2022/04/30 13:57:24;;;;;;;14.70;11.68;;;;;;;;;;5037389;28;20037;-84
2022/04/30 13:59:50;;;;;;;11.63;10.23;;;;;;;;;;5038424;28;20052;-85
2022/04/30 14:02:16;;;;;;;10.07;8.80;;;;;;;;;;5038148;28;20049;-85
2022/04/30 14:04:42;;;;;;;7.30;6.28;;;;;;;;;;5038173;28;20025;-85
2022/04/30 14:07:12;;;;;;;20.17;13.25;;;;;;;;;;5038373;28;20072;-85
2022/04/30 14:09:38;;;;;;;11.32;7.97;;;;;;;;;;5037316;28;20120;-85
2022/04/30 14:12:04;;;;;;;12.93;10.23;;;;;;;;;;5038223;28;20036;-85
2022/04/30 14:20:00;;;;;;;73.78;47.67;;;;;;;;;;5038367;28;20117;-85
2022/04/30 14:22:26;;;;;;;10.77;7.95;;;;;;;;;;5038163;28;20025;-85
2022/04/30 14:24:52;;;;;;;9.32;7.80;;;;;;;;;;5037948;28;20022;-85
2022/04/30 14:27:18;;;;;;;10.88;7.28;;;;;;;;;;5038042;28;20021;-85
2022/04/30 14:29:46;;;;;;;9.50;7.78;;;;;;;;;;5037820;28;20097;-85
2022/04/30 14:32:12;;;;;;;8.52;7.38;;;;;;;;;;5038382;28;20033;-85
2022/04/30 14:34:41;;;;;;;9.23;7.00;;;;;;;;;;5037774;28;20029;-84
2022/04/30 14:37:07;;;;;;;9.75;8.10;;;;;;;;;;5037619;28;20025;-85
2022/04/30 14:39:34;;;;;;;10.73;7.70;;;;;;;;;;5036880;28;20033;-85
2022/04/30 14:42:01;;;;;;;11.27;8.00;;;;;;;;;;5036734;28;20120;-85
2022/04/30 14:44:28;;;;;;;11.50;9.02;;;;;;;;;;5037578;28;20026;-85
2022/04/30 14:46:54;;;;;;;30.33;21.38;;;;;;;;;;5038508;28;20396;-89
2022/04/30 14:49:21;;;;;;;45.15;30.73;;;;;;;;;;5037218;28;20033;-89
2022/04/30 14:51:47;;;;;;;39.83;25.65;;;;;;;;;;5038469;28;20025;-88
2022/04/30 14:54:13;;;;;;;41.38;32.95;;;;;;;;;;5038041;28;20390;-88
2022/04/30 14:56:42;;;;;;;39.13;31.30;;;;;;;;;;5038349;28;20032;-88
2022/04/30 14:59:08;;;;;;;15.75;11.32;;;;;;;;;;5038080;28;20030;-88
2022/04/30 15:01:35;;;;;;;15.07;13.48;;;;;;;;;;5037177;28;20052;-88
2022/04/30 15:04:01;;;;;;;23.52;18.27;;;;;;;;;;5038375;28;20022;-88
2022/04/30 15:06:27;;;;;;;8.60;7.68;;;;;;;;;;5037264;28;20180;-89
2022/04/30 15:08:59;;;;;;;11.32;10.13;;;;;;;;;;5037640;28;20412;-90
2022/04/30 15:11:26;;;;;;;14.10;10.25;;;;;;;;;;5038082;28;20420;-91
2022/04/30 15:13:54;;;;;;;12.45;10.63;;;;;;;;;;5038297;28;20339;-90
2022/04/30 15:16:20;;;;;;;16.63;12.07;;;;;;;;;;5037979;28;20045;-88
2022/04/30 15:18:46;;;;;;;34.83;27.73;;;;;;;;;;5037697;28;20426;-89
2022/04/30 15:21:12;;;;;;;8.27;7.28;;;;;;;;;;5037758;28;20033;-86
2022/04/30 15:23:38;;;;;;;7.57;6.43;;;;;;;;;;5037587;28;20024;-86
2022/04/30 15:26:04;;;;;;;9.68;7.88;;;;;;;;;;5037535;28;20443;-87
2022/04/30 15:28:30;;;;;;;11.43;7.72;;;;;;;;;;5037600;28;20025;-89
2022/04/30 18:50:39;;;;;;;6.85;6.15;;;;;;;;;;5135338;27;20424;-89
2022/04/30 18:53:05;;;;;;;7.85;6.00;;;;;;;;;;5135702;27;20019;-88
2022/04/30 19:01:01;;;;;;;12.82;6.95;;;;;;;;;;5120947;28;20042;-89
2022/04/30 19:03:28;;;;;;;11.32;7.25;;;;;;;;;;5135486;27;20031;-89
2022/04/30 19:05:55;;;;;;;11.40;8.05;;;;;;;;;;5133015;28;20034;-88
2022/04/30 19:08:21;;;;;;;18.48;12.10;;;;;;;;;;5135763;27;20034;-89
2022/04/30 19:10:49;;;;;;;21.90;13.95;;;;;;;;;;5125083;28;20317;-94
2022/04/30 19:13:16;;;;;;;17.33;12.50;;;;;;;;;;5121254;28;20076;-89
2022/04/30 19:15:43;;;;;;;16.90;11.07;;;;;;;;;;5121248;28;20024;-90
2022/04/30 19:18:10;;;;;;;18.35;10.82;;;;;;;;;;5114930;28;20066;-90
2022/04/30 19:20:37;;;;;;;16.02;10.07;;;;;;;;;;5115350;28;20028;-91
2022/04/30 19:23:05;;;;;;;16.92;10.35;;;;;;;;;;5114633;28;20020;-91
2022/04/30 19:25:31;;;;;;;14.52;8.73;;;;;;;;;;5114762;28;20317;-91
2022/04/30 19:27:58;;;;;;;12.60;7.45;;;;;;;;;;5114663;28;20019;-91
2022/04/30 19:30:24;;;;;;;10.93;5.70;;;;;;;;;;5115494;28;20020;-91
2022/04/30 19:32:50;;;;;;;11.05;4.97;;;;;;;;;;5114498;28;20424;-91
2022/04/30 19:35:36;;;;;;;6.22;4.35;;;;;;;;;;5115096;28;20091;-91
2022/04/30 19:38:03;;;;;;;9.15;4.82;;;;;;;;;;5133526;28;20019;-91
2022/04/30 19:40:29;;;;;;;13.48;6.45;;;;;;;;;;5134799;27;20470;-90
2022/04/30 19:42:55;;;;;;;14.55;7.60;;;;;;;;;;5134711;27;20102;-91
2022/04/30 19:45:21;;;;;;;12.48;7.63;;;;;;;;;;5134852;27;20020;-91
2022/04/30 19:47:48;;;;;;;14.27;7.50;;;;;;;;;;5134774;27;20012;-91
2022/04/30 19:50:14;;;;;;;10.82;6.60;;;;;;;;;;5127639;28;20047;-92
2022/04/30 19:52:43;;;;;;;9.10;5.75;;;;;;;;;;5120131;28;20020;-91
2022/04/30 19:55:10;;;;;;;8.73;6.60;;;;;;;;;;5121096;28;20016;-91
2022/04/30 19:57:36;;;;;;;6.63;5.40;;;;;;;;;;5120666;28;20447;-92
2022/04/30 20:00:04;;;;;;;9.70;5.85;;;;;;;;;;5119684;28;20085;-90
2022/04/30 20:02:31;;;;;;;6.38;4.85;;;;;;;;;;5120903;28;20106;-91
2022/04/30 20:04:57;;;;;;;6.80;5.50;;;;;;;;;;5120908;28;20024;-92
2022/04/30 20:07:23;;;;;;;13.18;8.07;;;;;;;;;;5120390;27;20042;-91